createdAt,value
2023-04-18T00:00:18.713Z,28.88
2023-04-18T00:02:46.339Z,32.13
2023-04-18T00:05:18.145Z,30.60
2023-04-18T00:07:46.205Z,30.88
2023-04-18T00:10:14.089Z,29.42
2023-04-18T00:12:43.014Z,29.27
2023-04-18T00:15:11.616Z,30.55
2023-04-18T00:17:39.732Z,26.88
2023-04-18T00:20:12.757Z,28.90
2023-04-18T00:22:45.132Z,26.25
2023-04-18T00:25:12.781Z,25.65
2023-04-18T00:27:41.334Z,26.63
2023-04-18T00:30:09.452Z,23.90
2023-04-18T00:32:38.736Z,27.67
2023-04-18T00:35:06.815Z,23.63
2023-04-18T00:37:34.395Z,22.48
2023-04-18T00:40:02.074Z,25.00
2023-04-18T00:42:29.655Z,25.55
2023-04-18T00:44:57.380Z,29.58
2023-04-18T00:47:25.197Z,25.73
2023-04-18T00:49:53.034Z,26.83
2023-04-18T00:52:21.180Z,26.02
2023-04-18T00:54:48.872Z,25.05
2023-04-18T00:57:16.813Z,27.10
2023-04-18T00:59:46.455Z,25.08
2023-04-18T01:02:14.070Z,27.77
2023-04-18T01:04:43.603Z,27.75
2023-04-18T01:07:11.713Z,27.75
2023-04-18T01:09:40.234Z,25.25
2023-04-18T01:12:07.838Z,25.08
2023-04-18T01:14:35.508Z,25.17
2023-04-18T01:17:04.172Z,23.85
2023-04-18T01:19:31.794Z,26.35
2023-04-18T01:21:59.797Z,27.00
2023-04-18T01:24:29.774Z,26.42
2023-04-18T01:26:57.438Z,24.67
2023-04-18T01:29:26.029Z,25.67
2023-04-18T01:31:53.808Z,24.48
2023-04-18T01:34:21.400Z,25.95
2023-04-18T01:36:49.121Z,24.25
2023-04-18T01:39:18.388Z,25.95
2023-04-18T01:41:46.711Z,26.73
2023-04-18T01:44:14.513Z,25.35
2023-04-18T01:46:42.303Z,23.65
2023-04-18T01:49:10.409Z,24.52
2023-04-18T01:51:39.001Z,23.48
2023-04-18T01:54:06.588Z,27.88
2023-04-18T01:56:34.081Z,25.80
2023-04-18T01:59:02.675Z,26.90
2023-04-18T02:01:30.453Z,29.83
2023-04-18T02:03:59.760Z,28.67
2023-04-18T02:06:27.335Z,30.42
2023-04-18T02:08:54.876Z,23.80
2023-04-18T02:11:25.640Z,25.55
2023-04-18T02:13:53.252Z,25.13
2023-04-18T02:16:20.965Z,23.75
2023-04-18T02:18:49.775Z,29.10
2023-04-18T02:21:17.269Z,27.40
2023-04-18T02:23:44.843Z,28.17
2023-04-18T02:26:12.524Z,26.13
2023-04-18T02:28:40.143Z,29.20
2023-04-18T02:31:14.421Z,30.35
2023-04-18T02:33:47.494Z,30.50
2023-04-18T02:36:15.469Z,30.40
2023-04-18T02:38:43.383Z,30.00
2023-04-18T02:41:15.199Z,29.85
2023-04-18T02:43:42.933Z,34.83
2023-04-18T02:46:10.735Z,33.75
2023-04-18T02:48:38.539Z,32.50
2023-04-18T02:51:08.237Z,35.45
2023-04-18T02:53:37.883Z,35.47
2023-04-18T02:56:06.405Z,37.20
2023-04-18T02:59:03.146Z,34.53
2023-04-18T03:01:47.602Z,34.97
2023-04-18T03:04:18.634Z,31.52
2023-04-18T03:06:56.156Z,31.52
2023-04-18T03:09:23.943Z,31.42
2023-04-18T03:11:57.099Z,31.35
2023-04-18T03:14:27.788Z,32.17
2023-04-18T03:16:56.679Z,32.45
2023-04-18T03:19:29.060Z,33.58
2023-04-18T03:21:59.778Z,32.40
2023-04-18T03:24:28.110Z,31.15
2023-04-18T03:27:00.621Z,32.58
2023-04-18T03:29:28.652Z,31.33
2023-04-18T03:31:56.702Z,32.05
2023-04-18T03:34:24.314Z,31.98
2023-04-18T03:36:52.988Z,29.35
2023-04-18T03:39:20.621Z,31.25
2023-04-18T03:41:49.378Z,31.45
2023-04-18T03:44:17.114Z,34.30
2023-04-18T03:46:45.036Z,33.33
2023-04-18T03:49:12.883Z,33.65
2023-04-18T03:51:47.261Z,34.50
2023-04-18T03:54:15.983Z,32.63
2023-04-18T03:56:44.277Z,35.55
2023-04-18T03:59:12.729Z,34.42
2023-04-18T04:01:43.213Z,30.70
2023-04-18T04:04:12.208Z,30.63
2023-04-18T04:06:40.529Z,32.38
2023-04-18T04:09:08.401Z,33.72
2023-04-18T04:11:36.224Z,34.50
2023-04-18T04:14:04.528Z,37.75
2023-04-18T04:16:39.352Z,35.30
2023-04-18T04:19:07.700Z,33.00
2023-04-18T04:21:42.440Z,40.05
2023-04-18T04:24:13.930Z,34.97
2023-04-18T04:26:50.858Z,40.60
2023-04-18T04:29:23.749Z,40.45
2023-04-18T04:31:53.042Z,40.83
2023-04-18T04:34:31.664Z,40.80
2023-04-18T04:37:01.557Z,40.70
2023-04-18T04:39:30.809Z,44.65
2023-04-18T04:42:09.708Z,42.28
2023-04-18T04:44:47.343Z,41.20
2023-04-18T04:47:16.325Z,48.13
2023-04-18T04:49:44.820Z,38.85
2023-04-18T04:52:12.359Z,44.20
2023-04-18T04:54:40.819Z,45.90
2023-04-18T04:57:12.194Z,51.50
2023-04-18T04:59:40.791Z,49.22
2023-04-18T05:02:08.645Z,45.15
2023-04-18T05:04:37.238Z,46.70
2023-04-18T05:07:06.136Z,50.47
2023-04-18T05:09:33.667Z,46.88
2023-04-18T05:12:01.914Z,49.72
2023-04-18T05:14:29.764Z,52.03
2023-04-18T05:16:57.368Z,53.65
2023-04-18T05:19:24.927Z,55.45
2023-04-18T05:21:52.482Z,54.75
2023-04-18T05:24:20.038Z,57.78
2023-04-18T05:26:54.262Z,58.83
2023-04-18T05:29:21.920Z,60.90
2023-04-18T05:31:49.431Z,64.20
2023-04-18T05:34:17.090Z,60.30
2023-04-18T05:36:44.709Z,59.20
2023-04-18T05:39:12.356Z,60.95
2023-04-18T05:41:39.961Z,63.83
2023-04-18T05:44:07.444Z,61.17
2023-04-18T05:46:35.331Z,69.15
2023-04-18T05:49:03.643Z,55.20
2023-04-18T05:51:32.076Z,59.35
2023-04-18T05:53:59.866Z,57.70
2023-04-18T05:56:27.470Z,56.95
2023-04-18T05:58:55.036Z,53.95
2023-04-18T06:01:22.978Z,52.70
2023-04-18T06:03:50.862Z,53.33
2023-04-18T06:06:18.767Z,46.03
2023-04-18T06:08:46.286Z,55.05
2023-04-18T06:11:15.352Z,47.38
2023-04-18T06:13:43.423Z,43.97
2023-04-18T06:16:11.074Z,45.95
2023-04-18T06:18:39.018Z,43.80
2023-04-18T06:21:06.778Z,46.53
2023-04-18T06:23:34.291Z,48.35
2023-04-18T06:26:03.023Z,40.58
2023-04-18T06:28:30.666Z,42.78
2023-04-18T06:30:58.156Z,36.70
2023-04-18T06:33:25.823Z,33.58
2023-04-18T06:35:53.434Z,34.58
2023-04-18T06:38:21.175Z,37.45
2023-04-18T06:40:48.888Z,34.47
2023-04-18T06:43:16.411Z,40.28
2023-04-18T06:45:46.050Z,34.55
2023-04-18T06:48:13.939Z,35.05
2023-04-18T06:50:41.451Z,31.17
2023-04-18T06:53:08.947Z,31.95
2023-04-18T06:55:36.467Z,34.03
2023-04-18T06:58:05.498Z,30.75
2023-04-18T07:00:33.002Z,30.95
2023-04-18T07:03:02.158Z,32.78
2023-04-18T07:05:29.821Z,32.20
2023-04-18T07:07:57.412Z,29.55
2023-04-18T07:10:25.029Z,27.45
2023-04-18T07:12:52.624Z,28.63
2023-04-18T07:15:20.150Z,27.65
2023-04-18T07:17:47.761Z,28.38
2023-04-18T07:20:16.155Z,33.17
2023-04-18T07:22:43.785Z,35.47
2023-04-18T07:25:11.371Z,31.73
2023-04-18T07:27:38.974Z,34.20
2023-04-18T07:30:07.223Z,32.60
2023-04-18T07:32:34.871Z,29.75
2023-04-18T07:35:04.215Z,37.10
2023-04-18T07:37:31.909Z,36.17
2023-04-18T07:39:59.454Z,38.22
2023-04-18T07:42:27.213Z,31.17
2023-04-18T07:44:58.974Z,35.55
2023-04-18T07:47:29.805Z,34.70
2023-04-18T07:49:58.496Z,38.47
2023-04-18T07:52:26.514Z,42.88
2023-04-18T07:54:54.059Z,36.55
2023-04-18T07:57:21.744Z,34.38
2023-04-18T07:59:53.108Z,31.75
2023-04-18T08:02:21.538Z,37.92
2023-04-18T08:04:50.191Z,39.53
2023-04-18T08:07:18.019Z,41.88
2023-04-18T08:09:45.925Z,36.13
2023-04-18T08:12:13.619Z,38.10
2023-04-18T08:14:41.754Z,38.17
2023-04-18T08:17:09.411Z,38.42
2023-04-18T08:19:36.998Z,36.47
2023-04-18T08:22:09.568Z,33.55
2023-04-18T08:24:40.120Z,34.00
2023-04-18T08:27:07.805Z,37.92
2023-04-18T08:29:35.542Z,31.88
2023-04-18T08:32:06.339Z,33.40
2023-04-18T08:34:36.504Z,36.17
2023-04-18T08:37:04.346Z,31.17
2023-04-18T08:39:31.938Z,35.88
2023-04-18T08:42:00.602Z,34.05
2023-04-18T08:44:29.336Z,32.50
2023-04-18T08:46:57.687Z,27.52
2023-04-18T08:49:25.689Z,31.77
2023-04-18T08:51:53.338Z,33.78
2023-04-18T08:54:22.544Z,29.77
2023-04-18T08:57:12.501Z,28.27
2023-04-18T08:59:43.156Z,33.47
2023-04-18T09:02:12.816Z,31.98
2023-04-18T09:04:45.367Z,28.05
2023-04-18T09:07:15.085Z,29.80
2023-04-18T09:09:46.229Z,27.35
2023-04-18T09:12:18.277Z,24.50
2023-04-18T09:14:47.794Z,28.77
2023-04-18T09:17:30.254Z,24.45
2023-04-18T09:19:58.822Z,29.27
2023-04-18T09:22:26.458Z,21.08
2023-04-18T09:24:57.501Z,21.23
2023-04-18T09:27:25.087Z,20.92
2023-04-18T09:29:55.857Z,25.00
2023-04-18T09:32:27.436Z,22.35
2023-04-18T09:35:04.006Z,23.48
2023-04-18T09:37:32.356Z,23.38
2023-04-18T09:39:59.890Z,20.45
2023-04-18T09:42:35.769Z,22.40
2023-04-18T09:45:07.801Z,23.02
2023-04-18T09:47:36.820Z,19.30
2023-04-18T09:50:06.075Z,26.33
2023-04-18T09:52:38.718Z,23.60
2023-04-18T09:55:13.922Z,20.65
2023-04-18T09:57:45.539Z,18.25
2023-04-18T10:00:20.188Z,19.17
2023-04-18T10:02:49.414Z,17.17
2023-04-18T10:05:21.003Z,16.45
2023-04-18T10:07:50.899Z,21.27
2023-04-18T10:10:18.681Z,20.13
2023-04-18T10:12:48.517Z,18.33
2023-04-18T10:15:17.408Z,19.15
2023-04-18T10:18:03.785Z,15.15
2023-04-18T10:20:35.067Z,17.33
2023-04-18T10:23:39.949Z,17.60
2023-04-18T10:26:09.007Z,17.23
2023-04-18T10:28:59.559Z,15.30
2023-04-18T10:31:29.330Z,17.60
2023-04-18T10:34:05.331Z,15.48
2023-04-18T10:36:33.727Z,16.35
2023-04-18T10:39:23.606Z,15.13
2023-04-18T10:41:51.823Z,17.10
2023-04-18T10:44:22.798Z,14.35
2023-04-18T10:49:20.607Z,15.48
2023-04-18T10:51:53.080Z,16.10
2023-04-18T10:54:30.826Z,15.50
2023-04-18T10:57:00.068Z,17.58
2023-04-18T10:59:30.314Z,13.93
2023-04-18T11:02:05.418Z,16.07
2023-04-18T11:04:33.069Z,19.80
2023-04-18T11:07:01.370Z,15.13
2023-04-18T11:09:28.928Z,16.88
2023-04-18T11:12:10.081Z,14.98
2023-04-18T11:14:47.870Z,19.52
2023-04-18T11:17:23.834Z,14.02
2023-04-18T11:20:00.604Z,16.15
2023-04-18T11:22:28.409Z,16.45
2023-04-18T11:25:08.006Z,18.77
2023-04-18T11:27:35.764Z,16.85
2023-04-18T11:30:03.609Z,14.30
2023-04-18T11:32:31.317Z,17.60
2023-04-18T11:34:59.014Z,15.27
2023-04-18T11:37:26.685Z,18.23
2023-04-18T11:39:54.369Z,19.98
2023-04-18T11:42:26.531Z,15.70
2023-04-18T11:44:54.595Z,13.63
2023-04-18T11:47:22.889Z,18.25
2023-04-18T11:49:57.379Z,18.88
2023-04-18T11:52:26.537Z,14.73
2023-04-18T11:54:54.585Z,13.32
2023-04-18T11:57:26.278Z,13.90
2023-04-18T11:59:59.047Z,14.85
2023-04-18T12:02:38.969Z,20.17
2023-04-18T12:05:07.333Z,18.35
2023-04-18T12:07:42.160Z,16.02
2023-04-18T12:10:24.445Z,18.48
2023-04-18T12:12:58.592Z,15.10
2023-04-18T12:15:28.684Z,14.25
2023-04-18T12:18:04.824Z,19.50
2023-04-18T12:20:46.385Z,17.20
2023-04-18T12:23:33.824Z,17.08
2023-04-18T12:26:06.272Z,21.25
2023-04-18T12:28:35.449Z,14.27
2023-04-18T12:31:05.538Z,17.17
2023-04-18T12:33:33.802Z,14.20
2023-04-18T12:36:01.361Z,18.50
2023-04-18T12:38:28.934Z,17.45
2023-04-18T12:40:56.523Z,15.93
2023-04-18T12:43:24.065Z,14.40
2023-04-18T12:45:51.625Z,12.48
2023-04-18T12:48:19.150Z,16.58
2023-04-18T12:50:46.678Z,15.75
2023-04-18T12:53:14.165Z,13.10
2023-04-18T12:55:41.754Z,13.57
2023-04-18T12:58:09.224Z,14.68
2023-04-18T13:00:37.257Z,12.73
2023-04-18T13:03:05.110Z,16.70
2023-04-18T13:05:34.067Z,14.10
2023-04-18T13:08:15.222Z,17.77
2023-04-18T13:10:48.176Z,13.52
2023-04-18T13:13:15.911Z,13.10
2023-04-18T13:15:43.658Z,14.50
2023-04-18T13:18:11.295Z,16.63
2023-04-18T13:20:38.846Z,16.95
2023-04-18T13:23:06.399Z,10.57
2023-04-18T13:25:33.955Z,9.32
2023-04-18T13:28:01.701Z,13.73
2023-04-18T13:30:29.392Z,11.75
2023-04-18T13:32:57.035Z,9.63
2023-04-18T13:35:24.656Z,17.90
2023-04-18T13:37:52.148Z,11.38
2023-04-18T13:40:19.810Z,13.35
2023-04-18T13:42:47.387Z,14.13
2023-04-18T13:45:14.878Z,12.02
2023-04-18T13:47:42.491Z,15.18
2023-04-18T13:50:10.929Z,9.93
2023-04-18T13:52:38.454Z,20.25
2023-04-18T13:55:06.766Z,12.30
2023-04-18T13:57:34.652Z,14.40
2023-04-18T14:00:02.329Z,11.00
2023-04-18T14:02:41.417Z,9.90
2023-04-18T14:05:09.816Z,14.57
2023-04-18T14:07:38.427Z,12.95
2023-04-18T14:10:06.673Z,9.25
2023-04-18T14:12:34.632Z,12.13
2023-04-18T14:15:02.372Z,9.90
2023-04-18T14:17:31.067Z,10.82
2023-04-18T14:19:58.725Z,11.88
2023-04-18T14:22:26.972Z,8.85
2023-04-18T14:24:56.178Z,13.32
2023-04-18T14:27:26.143Z,14.27
2023-04-18T14:29:54.107Z,15.52
2023-04-18T14:32:21.727Z,10.88
2023-04-18T14:34:49.474Z,14.10
2023-04-18T14:37:17.741Z,12.40
2023-04-18T14:39:46.148Z,11.93
2023-04-18T14:42:13.817Z,10.93
2023-04-18T14:44:41.545Z,16.58
2023-04-18T14:47:09.453Z,11.52
2023-04-18T14:49:37.020Z,11.85
2023-04-18T14:52:05.007Z,11.93
2023-04-18T14:54:32.876Z,14.88
2023-04-18T14:57:01.148Z,11.38
2023-04-18T14:59:28.891Z,12.43
2023-04-18T15:01:56.565Z,12.77
2023-04-18T15:04:24.355Z,13.82
2023-04-18T15:06:51.958Z,14.60
2023-04-18T15:09:19.516Z,10.65
2023-04-18T15:11:47.024Z,13.90
2023-04-18T15:14:14.594Z,12.65
2023-04-18T15:16:42.285Z,14.48
2023-04-18T15:19:09.960Z,11.20
2023-04-18T15:21:37.450Z,10.50
2023-04-18T15:24:05.501Z,14.57
2023-04-18T15:26:33.416Z,10.30
2023-04-18T15:29:04.573Z,10.95
2023-04-18T15:34:00.312Z,10.55
2023-04-18T15:36:28.747Z,13.10
2023-04-18T15:38:56.361Z,11.45
2023-04-18T15:41:24.116Z,11.82
2023-04-18T15:43:52.923Z,10.82
2023-04-18T15:46:20.526Z,10.25
2023-04-18T15:48:48.208Z,15.40
2023-04-18T15:51:15.734Z,16.63
2023-04-18T15:53:43.390Z,12.27
2023-04-18T15:56:11.030Z,9.13
2023-04-18T15:58:38.550Z,11.52
2023-04-18T16:01:06.126Z,9.73
2023-04-18T16:03:33.922Z,11.55
2023-04-18T16:06:01.610Z,14.27
2023-04-18T16:08:31.326Z,13.77
2023-04-18T16:11:00.258Z,15.50
2023-04-18T16:13:27.835Z,16.02
2023-04-18T16:15:55.407Z,10.73
2023-04-18T16:18:23.275Z,11.10
2023-04-18T16:20:51.815Z,13.55
2023-04-18T16:23:20.541Z,9.95
2023-04-18T16:25:48.551Z,11.45
2023-04-18T16:28:16.276Z,12.70
2023-04-18T16:30:45.726Z,11.15
2023-04-18T16:33:13.430Z,12.10
2023-04-18T16:35:41.241Z,13.00
2023-04-18T16:38:08.879Z,15.30
2023-04-18T16:40:36.875Z,10.70
2023-04-18T16:43:04.429Z,12.10
2023-04-18T16:45:32.681Z,12.55
2023-04-18T16:48:00.376Z,12.77
2023-04-18T16:50:28.026Z,11.48
2023-04-18T16:52:55.654Z,12.68
2023-04-18T16:55:23.303Z,15.45
2023-04-18T16:57:50.910Z,18.63
2023-04-18T17:00:19.049Z,12.00
2023-04-18T17:02:47.175Z,12.50
2023-04-18T17:05:14.929Z,15.35
2023-04-18T17:07:44.064Z,11.77
2023-04-18T17:10:11.883Z,10.35
2023-04-18T17:12:39.450Z,12.35
2023-04-18T17:15:07.544Z,12.07
2023-04-18T17:17:35.676Z,11.05
2023-04-18T17:20:06.992Z,12.75
2023-04-18T17:22:34.953Z,12.70
2023-04-18T17:25:03.039Z,15.15
2023-04-18T17:27:39.406Z,12.52
2023-04-18T17:30:07.518Z,12.27
2023-04-18T17:32:35.330Z,11.23
2023-04-18T17:35:06.105Z,10.00
2023-04-18T17:37:33.914Z,11.35
2023-04-18T17:40:06.088Z,12.75
2023-04-18T17:42:34.580Z,11.60
2023-04-18T17:45:03.752Z,15.30
2023-04-18T17:47:33.486Z,9.40
2023-04-18T17:50:01.291Z,11.38
2023-04-18T17:52:28.880Z,12.27
2023-04-18T17:54:56.992Z,12.30
2023-04-18T17:57:26.715Z,12.25
2023-04-18T17:59:54.218Z,11.73
2023-04-18T18:02:23.412Z,11.52
2023-04-18T18:04:51.660Z,16.95
2023-04-18T18:07:19.449Z,10.80
2023-04-18T18:09:46.976Z,11.93
2023-04-18T18:12:14.649Z,13.50
2023-04-18T18:14:42.147Z,13.13
2023-04-18T18:17:09.965Z,14.93
2023-04-18T18:19:37.861Z,12.55
2023-04-18T18:22:05.666Z,15.70
2023-04-18T18:24:33.332Z,11.52
2023-04-18T18:27:01.875Z,15.07
2023-04-18T18:29:29.503Z,11.35
2023-04-18T18:31:57.049Z,12.98
2023-04-18T18:34:24.603Z,11.05
2023-04-18T18:36:52.147Z,12.55
2023-04-18T18:39:20.030Z,14.00
2023-04-18T18:41:47.562Z,14.02
2023-04-18T18:44:15.075Z,11.43
2023-04-18T18:46:43.385Z,12.15
2023-04-18T18:49:11.235Z,12.25
2023-04-18T18:51:38.830Z,10.20
2023-04-18T18:54:06.446Z,13.05
2023-04-18T18:56:34.003Z,10.48
2023-04-18T18:59:01.789Z,12.63
2023-04-18T19:01:30.282Z,13.20
2023-04-18T19:03:58.039Z,12.27
2023-04-18T19:06:26.530Z,9.40
2023-04-18T19:08:54.361Z,9.73
2023-04-18T19:11:21.913Z,9.27
2023-04-18T19:13:52.143Z,11.07
2023-04-18T19:16:19.801Z,9.27
2023-04-18T19:18:49.178Z,10.60
2023-04-18T19:21:17.310Z,9.85
2023-04-18T19:23:45.098Z,9.63
2023-04-18T19:26:12.818Z,11.40
2023-04-18T19:28:41.378Z,9.82
2023-04-18T19:31:09.644Z,10.25
2023-04-18T19:33:38.112Z,11.30
2023-04-18T19:36:05.902Z,12.68
2023-04-18T19:38:34.643Z,10.07
2023-04-18T19:41:02.227Z,9.75
2023-04-18T19:43:29.756Z,10.80
2023-04-18T19:45:57.708Z,11.73
2023-04-18T19:48:25.312Z,9.98
2023-04-18T19:50:53.081Z,11.25
2023-04-18T19:53:21.010Z,10.43
2023-04-18T19:55:48.743Z,13.27
2023-04-18T19:58:39.762Z,11.00
2023-04-18T20:01:09.934Z,12.07
2023-04-18T20:03:38.725Z,10.30
2023-04-18T20:06:07.091Z,9.98
2023-04-18T20:08:36.387Z,15.10
2023-04-18T20:11:11.232Z,11.27
2023-04-18T20:13:38.930Z,19.00
2023-04-18T20:16:08.863Z,12.35
2023-04-18T20:18:41.743Z,13.75
2023-04-18T20:21:11.126Z,12.52
2023-04-18T20:23:40.509Z,15.27
2023-04-18T20:26:09.164Z,10.35
2023-04-18T20:28:38.018Z,16.60
2023-04-18T20:31:06.093Z,12.43
2023-04-18T20:33:34.344Z,12.75
2023-04-18T20:36:02.084Z,11.63
2023-04-18T20:38:29.897Z,14.15
2023-04-18T20:41:00.954Z,14.05
2023-04-18T20:43:28.640Z,14.25
2023-04-18T20:45:58.632Z,16.25
2023-04-18T20:48:26.271Z,11.52
2023-04-18T20:50:53.851Z,13.55
2023-04-18T20:53:25.102Z,13.25
2023-04-18T20:55:52.856Z,14.55
2023-04-18T20:58:20.684Z,18.25
2023-04-18T21:00:48.961Z,15.75
2023-04-18T21:03:16.845Z,14.27
2023-04-18T21:05:45.203Z,12.85
2023-04-18T21:08:12.844Z,14.43
2023-04-18T21:10:40.503Z,17.48
2023-04-18T21:13:09.254Z,14.68
2023-04-18T21:15:36.893Z,14.77
2023-04-18T21:18:04.509Z,13.13
2023-04-18T21:20:34.171Z,15.52
2023-04-18T21:23:01.898Z,16.88
2023-04-18T21:25:29.488Z,14.90
2023-04-18T21:27:57.004Z,18.10
2023-04-18T21:30:24.669Z,13.75
2023-04-18T21:32:52.297Z,19.42
2023-04-18T21:35:21.322Z,15.85
2023-04-18T21:37:50.328Z,20.45
2023-04-18T21:40:18.081Z,14.32
2023-04-18T21:42:46.183Z,17.80
2023-04-18T21:45:14.360Z,18.25
2023-04-18T21:47:41.927Z,15.02
2023-04-18T21:50:10.665Z,20.98
2023-04-18T21:52:38.223Z,13.82
2023-04-18T21:55:06.243Z,21.23
2023-04-18T21:57:33.771Z,17.33
2023-04-18T22:00:01.326Z,15.38
2023-04-18T22:02:29.083Z,21.92
2023-04-18T22:04:56.688Z,21.08
2023-04-18T22:07:24.636Z,20.52
2023-04-18T22:09:52.251Z,16.35
2023-04-18T22:12:19.766Z,22.40
2023-04-18T22:14:48.549Z,18.50
2023-04-18T22:17:16.163Z,21.30
2023-04-18T22:19:44.487Z,18.55
2023-04-18T22:22:12.120Z,21.17
2023-04-18T22:24:39.703Z,17.13
2023-04-18T22:27:07.238Z,17.33
2023-04-18T22:29:34.800Z,19.45
2023-04-18T22:32:02.648Z,22.98
2023-04-18T22:34:30.451Z,17.90
2023-04-18T22:36:57.982Z,21.00
2023-04-18T22:39:26.056Z,19.40
2023-04-18T22:41:53.543Z,21.58
2023-04-18T22:44:21.061Z,17.48
2023-04-18T22:46:48.674Z,25.67
2023-04-18T22:49:17.966Z,25.40
2023-04-18T22:51:46.379Z,23.15
2023-04-18T22:54:14.201Z,20.10
2023-04-18T22:56:42.439Z,24.95
2023-04-18T22:59:09.999Z,20.20
2023-04-18T23:01:37.751Z,20.20
2023-04-18T23:04:05.735Z,21.92
2023-04-18T23:06:33.618Z,20.45
2023-04-18T23:09:01.144Z,21.35
2023-04-18T23:11:28.684Z,19.42
2023-04-18T23:13:56.219Z,23.17
2023-04-18T23:16:23.899Z,24.95
2023-04-18T23:18:51.454Z,21.17
2023-04-18T23:21:18.999Z,23.45
2023-04-18T23:23:46.528Z,25.67
2023-04-18T23:26:14.842Z,25.77
2023-04-18T23:28:42.485Z,25.38
2023-04-18T23:31:10.162Z,20.67
2023-04-18T23:33:37.863Z,20.02
2023-04-18T23:36:06.532Z,23.88
2023-04-18T23:38:34.061Z,20.10
2023-04-18T23:41:01.782Z,24.77
2023-04-18T23:43:29.440Z,21.98
2023-04-18T23:45:56.986Z,18.95
2023-04-18T23:48:24.566Z,20.83
2023-04-18T23:50:53.095Z,22.85
2023-04-18T23:53:22.124Z,24.88
2023-04-18T23:55:51.110Z,21.50
2023-04-18T23:58:18.880Z,21.52
